UPS236 EGSS-EDDK
Flight info
| Callsign | UPS236 |
|---|---|
| Flight time | 0h 57m |
| Altitude | 31000 |
| Route | CLN P44 RATLO M197 REDFA DCT TACHA DCT PAM L620 SONEB Z841 GETNI T858 KOPAG KOPAG1B |
| Aircraft | B763/H-SDE3FGHIJ4J7M3P2RWXYZ/LB1D1 |
Departure
| Time | 2026-04-26 15:37 |
|---|---|
| Airport | London Stansted Airport (EGSS) |
Arrival
| Time | 2026-04-26 16:34 |
|---|---|
| Airport | Cologne Bonn Airport (EDDK) |
| Time | Latitude | Longitude | Altitude | Speed | Heading |
|---|---|---|---|---|---|
| 2026-04-26 15:17 | 51.88735 | 0.25135 | 336 ft | 0 kts | 223° |
| 2026-04-26 15:27 | 51.88744 | 0.25149 | 337 ft | 2 kts | 223° |
| 2026-04-26 15:27 | 51.88755 | 0.25165 | 337 ft | 2 kts | 223° |
| 2026-04-26 15:27 | 51.88766 | 0.25182 | 337 ft | 2 kts | 226° |
| 2026-04-26 15:27 | 51.88775 | 0.25201 | 337 ft | 2 kts | 243° |
| 2026-04-26 15:28 | 51.88780 | 0.25223 | 337 ft | 2 kts | 256° |
| 2026-04-26 15:28 | 51.88782 | 0.25247 | 337 ft | 2 kts | 270° |
| 2026-04-26 15:28 | 51.88781 | 0.25271 | 337 ft | 2 kts | 283° |
| 2026-04-26 15:28 | 51.88776 | 0.25293 | 337 ft | 2 kts | 297° |
| 2026-04-26 15:29 | 51.88768 | 0.25313 | 337 ft | 1 kts | 310° |
| 2026-04-26 15:29 | 51.88766 | 0.25318 | 337 ft | 0 kts | 313° |
| 2026-04-26 15:31 | 51.88766 | 0.25317 | 337 ft | 0 kts | 313° |
| 2026-04-26 15:31 | 51.88783 | 0.25288 | 337 ft | 7 kts | 313° |
| 2026-04-26 15:31 | 51.88842 | 0.25184 | 338 ft | 17 kts | 312° |
| 2026-04-26 15:32 | 51.88943 | 0.24999 | 339 ft | 10 kts | 295° |
| 2026-04-26 15:32 | 51.88880 | 0.24825 | 338 ft | 15 kts | 224° |
| 2026-04-26 15:32 | 51.88782 | 0.24682 | 337 ft | 21 kts | 222° |
| 2026-04-26 15:33 | 51.88703 | 0.24595 | 336 ft | 0 kts | 232° |
| 2026-04-26 15:33 | 51.88662 | 0.24507 | 336 ft | 27 kts | 229° |
| 2026-04-26 15:33 | 51.88528 | 0.24303 | 337 ft | 25 kts | 221° |
| 2026-04-26 15:33 | 51.88403 | 0.24113 | 338 ft | 23 kts | 223° |
| 2026-04-26 15:34 | 51.88286 | 0.23941 | 340 ft | 21 kts | 221° |
| 2026-04-26 15:34 | 51.88180 | 0.23788 | 342 ft | 18 kts | 220° |
| 2026-04-26 15:34 | 51.88084 | 0.23635 | 343 ft | 22 kts | 223° |
| 2026-04-26 15:34 | 51.87956 | 0.23440 | 344 ft | 26 kts | 223° |
| 2026-04-26 15:35 | 51.87822 | 0.23243 | 344 ft | 25 kts | 220° |
| 2026-04-26 15:35 | 51.87738 | 0.23103 | 344 ft | 12 kts | 248° |
| 2026-04-26 15:35 | 51.87764 | 0.22978 | 343 ft | 11 kts | 311° |
| 2026-04-26 15:35 | 51.87818 | 0.22880 | 343 ft | 11 kts | 311° |
| 2026-04-26 15:36 | 51.87873 | 0.22780 | 343 ft | 12 kts | 311° |
| 2026-04-26 15:36 | 51.87936 | 0.22689 | 343 ft | 12 kts | 338° |
| 2026-04-26 15:36 | 51.88007 | 0.22735 | 344 ft | 11 kts | 40° |
| 2026-04-26 15:36 | 51.88127 | 0.22915 | 345 ft | 48 kts | 43° |
| 2026-04-26 15:37 | 51.88530 | 0.23525 | 343 ft | 109 kts | 43° |
| 2026-04-26 15:37 | 51.89226 | 0.24566 | 349 ft | 161 kts | 43° |
| 2026-04-26 15:37 | 51.90131 | 0.25928 | 632 ft | 189 kts | 45° |
| 2026-04-26 15:37 | 51.90980 | 0.27537 | 1359 ft | 195 kts | 67° |
| 2026-04-26 15:38 | 51.91154 | 0.29708 | 1915 ft | 203 kts | 97° |
| 2026-04-26 15:38 | 51.90855 | 0.32018 | 2348 ft | 219 kts | 104° |
| 2026-04-26 15:38 | 51.90391 | 0.34474 | 2712 ft | 242 kts | 108° |
| 2026-04-26 15:38 | 51.89793 | 0.37072 | 3367 ft | 253 kts | 110° |
| 2026-04-26 15:39 | 51.89100 | 0.39790 | 3961 ft | 267 kts | 112° |
| 2026-04-26 15:39 | 51.88336 | 0.42606 | 3984 ft | 279 kts | 113° |
| 2026-04-26 15:39 | 51.87548 | 0.45406 | 3982 ft | 269 kts | 114° |
| 2026-04-26 15:39 | 51.87030 | 0.47221 | 4009 ft | 266 kts | 114° |
| 2026-04-26 15:40 | 51.85977 | 0.50863 | 4363 ft | 271 kts | 114° |
| 2026-04-26 15:40 | 51.85191 | 0.53562 | 5275 ft | 271 kts | 114° |
| 2026-04-26 15:40 | 51.84383 | 0.56321 | 6133 ft | 275 kts | 114° |
| 2026-04-26 15:40 | 51.83637 | 0.59138 | 6933 ft | 278 kts | 103° |
| 2026-04-26 15:41 | 51.83360 | 0.62263 | 7725 ft | 283 kts | 92° |
| 2026-04-26 15:41 | 51.83282 | 0.65417 | 8539 ft | 287 kts | 91° |
| 2026-04-26 15:41 | 51.83286 | 0.68676 | 9319 ft | 292 kts | 89° |
| 2026-04-26 15:41 | 51.83345 | 0.71946 | 10070 ft | 296 kts | 88° |
| 2026-04-26 15:42 | 51.83436 | 0.75291 | 10833 ft | 303 kts | 87° |
| 2026-04-26 15:42 | 51.83547 | 0.78749 | 11251 ft | 321 kts | 86° |
| 2026-04-26 15:42 | 51.83677 | 0.82457 | 11712 ft | 338 kts | 86° |
| 2026-04-26 15:42 | 51.83816 | 0.86295 | 12125 ft | 357 kts | 86° |
| 2026-04-26 15:43 | 51.83967 | 0.90401 | 12808 ft | 367 kts | 86° |
| 2026-04-26 15:43 | 51.84117 | 0.94500 | 13656 ft | 371 kts | 86° |
| 2026-04-26 15:43 | 51.84423 | 1.02884 | 15270 ft | 380 kts | 86° |
| 2026-04-26 15:44 | 51.84576 | 1.07113 | 16000 ft | 385 kts | 86° |
| 2026-04-26 15:44 | 51.85200 | 1.15770 | 17429 ft | 393 kts | 71° |
| 2026-04-26 15:44 | 51.86235 | 1.19804 | 18078 ft | 397 kts | 65° |
| 2026-04-26 15:45 | 51.88459 | 1.28098 | 19404 ft | 407 kts | 65° |
| 2026-04-26 15:45 | 51.89580 | 1.32287 | 20065 ft | 411 kts | 65° |
| 2026-04-26 15:46 | 51.91861 | 1.40802 | 21343 ft | 418 kts | 65° |
| 2026-04-26 15:46 | 51.93005 | 1.45083 | 21979 ft | 421 kts | 65° |
| 2026-04-26 15:46 | 51.94170 | 1.49450 | 22561 ft | 426 kts | 65° |
| 2026-04-26 15:46 | 51.94956 | 1.52399 | 22952 ft | 428 kts | 65° |
| 2026-04-26 15:47 | 51.96522 | 1.58290 | 23709 ft | 433 kts | 64° |
| 2026-04-26 15:47 | 51.98885 | 1.67355 | 24786 ft | 443 kts | 69° |
| 2026-04-26 15:47 | 51.99725 | 1.72167 | 25308 ft | 448 kts | 75° |
| 2026-04-26 15:48 | 52.00517 | 1.77124 | 25805 ft | 453 kts | 74° |
| 2026-04-26 15:48 | 52.01290 | 1.82036 | 26328 ft | 457 kts | 74° |
| 2026-04-26 15:48 | 52.02080 | 1.87074 | 26852 ft | 461 kts | 74° |
| 2026-04-26 15:48 | 52.02858 | 1.92083 | 27388 ft | 464 kts | 74° |
| 2026-04-26 15:49 | 52.03641 | 1.97147 | 27828 ft | 470 kts | 74° |
| 2026-04-26 15:49 | 52.04436 | 2.02313 | 28309 ft | 474 kts | 74° |
| 2026-04-26 15:49 | 52.05225 | 2.07461 | 28807 ft | 477 kts | 74° |
| 2026-04-26 15:49 | 52.06025 | 2.12692 | 29272 ft | 481 kts | 74° |
| 2026-04-26 15:50 | 52.06833 | 2.18003 | 29741 ft | 484 kts | 74° |
| 2026-04-26 15:50 | 52.07635 | 2.23287 | 30211 ft | 488 kts | 74° |
| 2026-04-26 15:50 | 52.08445 | 2.28636 | 30642 ft | 492 kts | 74° |
| 2026-04-26 15:50 | 52.09257 | 2.34024 | 31133 ft | 494 kts | 74° |
| 2026-04-26 15:51 | 52.10072 | 2.39454 | 31331 ft | 495 kts | 74° |
| 2026-04-26 15:51 | 52.11724 | 2.50305 | 31321 ft | 493 kts | 70° |
| 2026-04-26 15:52 | 52.13764 | 2.60880 | 31326 ft | 495 kts | 69° |
| 2026-04-26 15:52 | 52.15796 | 2.71534 | 31317 ft | 494 kts | 70° |
| 2026-04-26 15:53 | 52.17811 | 2.82190 | 31318 ft | 494 kts | 70° |
| 2026-04-26 15:53 | 52.19816 | 2.92870 | 31326 ft | 494 kts | 70° |
| 2026-04-26 15:54 | 52.21804 | 3.03517 | 31327 ft | 493 kts | 70° |
| 2026-04-26 15:54 | 52.23788 | 3.14209 | 31328 ft | 492 kts | 70° |
| 2026-04-26 15:55 | 52.25528 | 3.24963 | 31333 ft | 495 kts | 79° |
| 2026-04-26 15:55 | 52.26176 | 3.36116 | 31327 ft | 497 kts | 82° |
| 2026-04-26 15:56 | 52.26746 | 3.47317 | 31327 ft | 495 kts | 82° |
| 2026-04-26 15:56 | 52.27286 | 3.58420 | 31318 ft | 495 kts | 82° |
| 2026-04-26 15:57 | 52.27815 | 3.69600 | 31310 ft | 495 kts | 83° |
| 2026-04-26 15:57 | 52.28334 | 3.80874 | 31315 ft | 496 kts | 83° |
| 2026-04-26 15:58 | 52.28838 | 3.92063 | 31315 ft | 495 kts | 83° |
| 2026-04-26 15:58 | 52.29331 | 4.03243 | 31319 ft | 494 kts | 83° |
| 2026-04-26 15:59 | 52.29812 | 4.14379 | 31315 ft | 494 kts | 83° |
| 2026-04-26 15:59 | 52.30284 | 4.25556 | 31315 ft | 493 kts | 83° |
| 2026-04-26 16:00 | 52.30741 | 4.36647 | 31317 ft | 493 kts | 83° |
| 2026-04-26 16:00 | 52.31189 | 4.47765 | 31309 ft | 492 kts | 83° |
| 2026-04-26 16:01 | 52.31627 | 4.58884 | 31316 ft | 493 kts | 83° |
| 2026-04-26 16:01 | 52.32056 | 4.70047 | 31306 ft | 493 kts | 84° |
| 2026-04-26 16:02 | 52.32476 | 4.81264 | 31306 ft | 493 kts | 83° |
| 2026-04-26 16:02 | 52.32881 | 4.92385 | 31303 ft | 493 kts | 84° |
| 2026-04-26 16:03 | 52.33197 | 5.03518 | 31303 ft | 493 kts | 89° |
| 2026-04-26 16:03 | 52.31946 | 5.14560 | 31314 ft | 498 kts | 108° |
| 2026-04-26 16:04 | 52.29600 | 5.25116 | 31306 ft | 499 kts | 109° |
| 2026-04-26 16:04 | 52.27132 | 5.35696 | 31299 ft | 499 kts | 109° |
| 2026-04-26 16:05 | 52.24633 | 5.46195 | 31298 ft | 497 kts | 109° |
| 2026-04-26 16:05 | 52.22120 | 5.56638 | 31290 ft | 497 kts | 109° |
| 2026-04-26 16:06 | 52.19608 | 5.67014 | 31292 ft | 498 kts | 110° |
| 2026-04-26 16:06 | 52.17048 | 5.77523 | 31289 ft | 498 kts | 110° |
| 2026-04-26 16:07 | 52.14488 | 5.87981 | 31292 ft | 498 kts | 110° |
| 2026-04-26 16:07 | 52.11928 | 5.98389 | 31290 ft | 497 kts | 110° |
| 2026-04-26 16:08 | 52.09822 | 6.07591 | 31286 ft | 494 kts | 102° |
| 2026-04-26 16:08 | 52.08554 | 6.18494 | 31282 ft | 492 kts | 97° |
| 2026-04-26 16:09 | 52.07388 | 6.29472 | 31285 ft | 492 kts | 97° |
| 2026-04-26 16:09 | 52.06239 | 6.40326 | 31298 ft | 492 kts | 97° |
| 2026-04-26 16:10 | 52.05072 | 6.51277 | 31300 ft | 493 kts | 97° |
| 2026-04-26 16:10 | 52.03895 | 6.62243 | 31304 ft | 494 kts | 97° |
| 2026-04-26 16:11 | 52.02601 | 6.72917 | 31263 ft | 472 kts | 105° |
| 2026-04-26 16:11 | 52.01461 | 6.77803 | 30841 ft | 469 kts | 115° |
| 2026-04-26 16:11 | 51.99906 | 6.82445 | 30163 ft | 469 kts | 120° |
| 2026-04-26 16:11 | 51.98470 | 6.86427 | 29579 ft | 469 kts | 120° |
| 2026-04-26 16:12 | 51.96804 | 6.90968 | 29111 ft | 464 kts | 120° |
| 2026-04-26 16:12 | 51.95147 | 6.95425 | 28587 ft | 461 kts | 121° |
| 2026-04-26 16:12 | 51.91843 | 7.04202 | 27276 ft | 452 kts | 121° |
| 2026-04-26 16:13 | 51.90194 | 7.08551 | 26636 ft | 446 kts | 121° |
| 2026-04-26 16:13 | 51.88569 | 7.12827 | 25850 ft | 444 kts | 121° |
| 2026-04-26 16:13 | 51.86963 | 7.17038 | 25263 ft | 439 kts | 121° |
| 2026-04-26 16:13 | 51.85384 | 7.21173 | 24750 ft | 436 kts | 121° |
| 2026-04-26 16:14 | 51.83795 | 7.25333 | 24231 ft | 433 kts | 121° |
| 2026-04-26 16:14 | 51.82238 | 7.29402 | 23770 ft | 429 kts | 121° |
| 2026-04-26 16:14 | 51.79415 | 7.36763 | 22926 ft | 422 kts | 121° |
| 2026-04-26 16:15 | 51.78028 | 7.40370 | 22516 ft | 418 kts | 121° |
| 2026-04-26 16:15 | 51.76476 | 7.44401 | 22058 ft | 415 kts | 121° |
| 2026-04-26 16:15 | 51.74924 | 7.48426 | 21601 ft | 411 kts | 121° |
| 2026-04-26 16:16 | 51.71736 | 7.55972 | 20703 ft | 405 kts | 135° |
| 2026-04-26 16:16 | 51.69578 | 7.58786 | 20286 ft | 400 kts | 150° |
| 2026-04-26 16:16 | 51.67092 | 7.60661 | 19847 ft | 395 kts | 160° |
| 2026-04-26 16:16 | 51.64563 | 7.62211 | 19396 ft | 393 kts | 160° |
| 2026-04-26 16:17 | 51.62729 | 7.63312 | 19070 ft | 390 kts | 161° |
| 2026-04-26 16:17 | 51.60207 | 7.64792 | 18626 ft | 387 kts | 161° |
| 2026-04-26 16:17 | 51.57689 | 7.66249 | 18186 ft | 384 kts | 162° |
| 2026-04-26 16:17 | 51.55111 | 7.67729 | 17742 ft | 382 kts | 162° |
| 2026-04-26 16:18 | 51.52793 | 7.69052 | 17344 ft | 379 kts | 162° |
| 2026-04-26 16:18 | 51.47887 | 7.71840 | 16511 ft | 375 kts | 162° |
| 2026-04-26 16:19 | 51.42981 | 7.74618 | 15690 ft | 371 kts | 162° |
| 2026-04-26 16:19 | 51.41138 | 7.75658 | 15372 ft | 369 kts | 162° |
| 2026-04-26 16:19 | 51.37165 | 7.77900 | 14783 ft | 365 kts | 162° |
| 2026-04-26 16:20 | 51.33997 | 7.79686 | 14215 ft | 364 kts | 162° |
| 2026-04-26 16:20 | 51.29631 | 7.82144 | 13447 ft | 359 kts | 161° |
| 2026-04-26 16:20 | 51.27283 | 7.83464 | 13047 ft | 357 kts | 161° |
| 2026-04-26 16:21 | 51.24978 | 7.84758 | 12638 ft | 355 kts | 161° |
| 2026-04-26 16:21 | 51.22651 | 7.86063 | 12247 ft | 354 kts | 161° |
| 2026-04-26 16:21 | 51.20356 | 7.87349 | 11870 ft | 352 kts | 161° |
| 2026-04-26 16:21 | 51.18042 | 7.88667 | 11445 ft | 350 kts | 158° |
| 2026-04-26 16:22 | 51.15819 | 7.90081 | 11043 ft | 349 kts | 166° |
| 2026-04-26 16:22 | 51.13432 | 7.90561 | 10843 ft | 335 kts | 185° |
| 2026-04-26 16:22 | 51.11248 | 7.89823 | 10812 ft | 315 kts | 208° |
| 2026-04-26 16:22 | 51.09504 | 7.87989 | 10781 ft | 295 kts | 230° |
| 2026-04-26 16:23 | 51.08308 | 7.85435 | 10699 ft | 280 kts | 241° |
| 2026-04-26 16:23 | 51.07270 | 7.82844 | 10282 ft | 283 kts | 239° |
| 2026-04-26 16:23 | 51.05864 | 7.80703 | 10269 ft | 279 kts | 214° |
| 2026-04-26 16:23 | 51.04177 | 7.79179 | 10252 ft | 285 kts | 213° |
| 2026-04-26 16:24 | 51.02434 | 7.77618 | 10211 ft | 287 kts | 212° |
| 2026-04-26 16:24 | 51.00696 | 7.76096 | 9826 ft | 290 kts | 212° |
| 2026-04-26 16:24 | 50.98910 | 7.74550 | 9481 ft | 290 kts | 212° |
| 2026-04-26 16:24 | 50.97151 | 7.73037 | 9183 ft | 289 kts | 211° |
| 2026-04-26 16:25 | 50.95396 | 7.71533 | 8785 ft | 288 kts | 211° |
| 2026-04-26 16:25 | 50.93631 | 7.70025 | 8288 ft | 290 kts | 211° |
| 2026-04-26 16:25 | 50.91851 | 7.68507 | 7829 ft | 289 kts | 211° |
| 2026-04-26 16:25 | 50.90100 | 7.67018 | 7498 ft | 285 kts | 211° |
| 2026-04-26 16:26 | 50.88432 | 7.65599 | 7066 ft | 284 kts | 211° |
| 2026-04-26 16:26 | 50.87276 | 7.64616 | 6783 ft | 280 kts | 210° |
| 2026-04-26 16:26 | 50.85037 | 7.62717 | 6389 ft | 271 kts | 210° |
| 2026-04-26 16:26 | 50.83375 | 7.61307 | 6114 ft | 271 kts | 210° |
| 2026-04-26 16:27 | 50.81719 | 7.59902 | 5867 ft | 268 kts | 210° |
| 2026-04-26 16:27 | 50.80295 | 7.58696 | 5530 ft | 272 kts | 210° |
| 2026-04-26 16:27 | 50.78870 | 7.57490 | 5428 ft | 265 kts | 210° |
| 2026-04-26 16:27 | 50.77248 | 7.56119 | 5111 ft | 266 kts | 210° |
| 2026-04-26 16:28 | 50.75842 | 7.54930 | 4896 ft | 264 kts | 209° |
| 2026-04-26 16:28 | 50.74209 | 7.53551 | 4611 ft | 263 kts | 209° |
| 2026-04-26 16:28 | 50.72649 | 7.52025 | 4320 ft | 261 kts | 225° |
| 2026-04-26 16:28 | 50.71671 | 7.49710 | 3997 ft | 259 kts | 255° |
| 2026-04-26 16:29 | 50.71369 | 7.47561 | 3783 ft | 256 kts | 262° |
| 2026-04-26 16:29 | 50.71068 | 7.44806 | 3511 ft | 256 kts | 262° |
| 2026-04-26 16:29 | 50.70774 | 7.42013 | 3235 ft | 256 kts | 263° |
| 2026-04-26 16:29 | 50.70717 | 7.39982 | 3026 ft | 253 kts | 282° |
| 2026-04-26 16:30 | 50.71198 | 7.37503 | 2982 ft | 238 kts | 305° |
| 2026-04-26 16:30 | 50.72317 | 7.35627 | 3012 ft | 227 kts | 321° |
| 2026-04-26 16:30 | 50.73457 | 7.33982 | 2951 ft | 218 kts | 318° |
| 2026-04-26 16:30 | 50.74536 | 7.32369 | 2964 ft | 210 kts | 319° |
| 2026-04-26 16:31 | 50.75571 | 7.30855 | 2967 ft | 197 kts | 319° |
| 2026-04-26 16:31 | 50.76579 | 7.29396 | 2696 ft | 198 kts | 319° |
| 2026-04-26 16:31 | 50.77604 | 7.27919 | 2435 ft | 198 kts | 319° |
| 2026-04-26 16:31 | 50.78620 | 7.26459 | 2165 ft | 199 kts | 319° |
| 2026-04-26 16:32 | 50.79367 | 7.25387 | 1973 ft | 199 kts | 319° |
| 2026-04-26 16:32 | 50.79458 | 7.25256 | 1949 ft | 198 kts | 319° |
| 2026-04-26 16:32 | 50.80579 | 7.23648 | 1632 ft | 188 kts | 320° |
| 2026-04-26 16:32 | 50.81491 | 7.22331 | 1381 ft | 178 kts | 318° |
| 2026-04-26 16:33 | 50.82371 | 7.21066 | 1156 ft | 163 kts | 317° |
| 2026-04-26 16:33 | 50.82814 | 7.20433 | 1059 ft | 152 kts | 317° |
| 2026-04-26 16:33 | 50.83503 | 7.19446 | 893 ft | 145 kts | 317° |
| 2026-04-26 16:33 | 50.84127 | 7.18553 | 736 ft | 147 kts | 317° |
| 2026-04-26 16:34 | 50.84885 | 7.17460 | 533 ft | 149 kts | 319° |
| 2026-04-26 16:34 | 50.85647 | 7.16363 | 336 ft | 146 kts | 319° |
| 2026-04-26 16:34 | 50.86341 | 7.15369 | 289 ft | 109 kts | 318° |
| 2026-04-26 16:34 | 50.86712 | 7.14838 | 276 ft | 41 kts | 316° |
| 2026-04-26 16:35 | 50.86814 | 7.14665 | 272 ft | 15 kts | 302° |
| 2026-04-26 16:35 | 50.86872 | 7.14438 | 268 ft | 23 kts | 282° |
| 2026-04-26 16:35 | 50.86898 | 7.14221 | 263 ft | 3 kts | 279° |
| 2026-04-26 16:35 | 50.86898 | 7.14219 | 263 ft | 0 kts | 279° |
| 2026-04-26 16:37 | 50.86900 | 7.14202 | 263 ft | 6 kts | 279° |
| 2026-04-26 16:37 | 50.86915 | 7.14075 | 261 ft | 16 kts | 281° |
| 2026-04-26 16:37 | 50.86926 | 7.13972 | 260 ft | 10 kts | 273° |
| 2026-04-26 16:38 | 50.86883 | 7.13866 | 259 ft | 7 kts | 223° |
| 2026-04-26 16:38 | 50.86865 | 7.13835 | 259 ft | 2 kts | 227° |
| 2026-04-26 16:38 | 50.86856 | 7.13820 | 259 ft | 0 kts | 227° |